ドレスデン の空港の天気 - METARとTAF

ドレスデン空港 ( EDDC / DRS ) - ドイツ ドレスデン
飛行場実況気象(Metar)
観測時間02/05 21:20 CET (02/05 20:20 UTC)
風向・風速南南東 2m/s
視程10km以上
天気現象
なし
気温-4℃
湿度80%
気圧1037hPa
METAREDDC 052020Z AUTO 15003KT CAVOK M04/M07 Q1037 NOSIG
過去の天気等 Google飛行場航空写真 Wunderground天気予報

過去48時間のMETAR

飛行場予報(TAF)
発表時間: 2/05 18:00 CET (2/05 17:00 UTC)
予報対象時間: 5日19時 CET ~ 6日19時 CET
風向・風速南南東 2m/s
視程10km以上
なし
6日11時 CET ~ 6日13時 CET に徐々に
風向・風速東北東 3m/s
TAF EDDC 051700Z 0518/0618 15004KT CAVOK
BECMG 0610/0612 06005KT